sensor_id;sensor_type;location;lat;lon;timestamp;pressure;altitude;pressure_sealevel;temperature;humidity
45888;BME280;31595;51.418;7.572;2022-12-18T00:01:22;101518.69;;;-5.82;59.73
45888;BME280;31595;51.418;7.572;2022-12-18T00:03:50;101522.06;;;-5.80;59.50
45888;BME280;31595;51.418;7.572;2022-12-18T00:06:18;101519.53;;;-5.82;59.48
45888;BME280;31595;51.418;7.572;2022-12-18T00:08:46;101530.69;;;-5.77;59.57
45888;BME280;31595;51.418;7.572;2022-12-18T00:11:15;101533.94;;;-5.81;59.42
45888;BME280;31595;51.418;7.572;2022-12-18T00:13:43;101532.41;;;-5.84;59.01
45888;BME280;31595;51.418;7.572;2022-12-18T00:16:12;101529.25;;;-5.87;59.16
45888;BME280;31595;51.418;7.572;2022-12-18T00:18:41;101522.94;;;-5.88;59.90
45888;BME280;31595;51.418;7.572;2022-12-18T00:21:10;101524.66;;;-5.87;59.79
45888;BME280;31595;51.418;7.572;2022-12-18T00:23:39;101529.41;;;-5.89;59.07
45888;BME280;31595;51.418;7.572;2022-12-18T00:26:10;101541.22;;;-5.82;59.19
45888;BME280;31595;51.418;7.572;2022-12-18T00:28:44;101533.72;;;-5.95;59.26
45888;BME280;31595;51.418;7.572;2022-12-18T00:31:16;101541.19;;;-5.97;58.89
45888;BME280;31595;51.418;7.572;2022-12-18T00:33:46;101535.97;;;-5.98;59.51
45888;BME280;31595;51.418;7.572;2022-12-18T00:36:15;101531.47;;;-5.91;58.90
45888;BME280;31595;51.418;7.572;2022-12-18T00:38:43;101535.50;;;-5.87;59.33
45888;BME280;31595;51.418;7.572;2022-12-18T00:41:12;101535.84;;;-5.90;59.27
45888;BME280;31595;51.418;7.572;2022-12-18T00:44:00;101534.09;;;-5.98;59.05
45888;BME280;31595;51.418;7.572;2022-12-18T00:46:27;101536.78;;;-5.98;58.92
45888;BME280;31595;51.418;7.572;2022-12-18T00:48:56;101535.97;;;-5.98;59.42
45888;BME280;31595;51.418;7.572;2022-12-18T00:51:23;101540.53;;;-5.99;59.96
45888;BME280;31595;51.418;7.572;2022-12-18T00:53:51;101533.72;;;-5.95;59.62
45888;BME280;31595;51.418;7.572;2022-12-18T00:56:21;101540.06;;;-6.02;59.14
45888;BME280;31595;51.418;7.572;2022-12-18T00:58:49;101548.94;;;-5.94;58.86
45888;BME280;31595;51.418;7.572;2022-12-18T01:01:16;101547.28;;;-5.95;59.59
45888;BME280;31595;51.418;7.572;2022-12-18T01:03:44;101539.59;;;-5.91;58.94
45888;BME280;31595;51.418;7.572;2022-12-18T01:06:15;101536.06;;;-5.92;59.13
45888;BME280;31595;51.418;7.572;2022-12-18T01:08:42;101539.34;;;-5.96;58.96
45888;BME280;31595;51.418;7.572;2022-12-18T01:11:11;101536.31;;;-6.01;59.35
45888;BME280;31595;51.418;7.572;2022-12-18T01:13:39;101537.00;;;-6.07;59.40
45888;BME280;31595;51.418;7.572;2022-12-18T01:16:06;101533.25;;;-5.98;58.78
45888;BME280;31595;51.418;7.572;2022-12-18T01:18:35;101525.44;;;-6.01;59.50
45888;BME280;31595;51.418;7.572;2022-12-18T01:21:06;101529.91;;;-6.08;59.87
45888;BME280;31595;51.418;7.572;2022-12-18T01:23:34;101525.09;;;-5.98;58.76
45888;BME280;31595;51.418;7.572;2022-12-18T01:26:06;101532.59;;;-6.00;59.22
45888;BME280;31595;51.418;7.572;2022-12-18T01:28:34;101532.91;;;-6.03;59.26
45888;BME280;31595;51.418;7.572;2022-12-18T01:31:16;101532.22;;;-5.97;58.99
45888;BME280;31595;51.418;7.572;2022-12-18T01:33:44;101532.38;;;-5.99;59.34
45888;BME280;31595;51.418;7.572;2022-12-18T01:36:18;101536.63;;;-5.96;59.04
45888;BME280;31595;51.418;7.572;2022-12-18T01:38:48;101542.06;;;-5.96;59.11
45888;BME280;31595;51.418;7.572;2022-12-18T01:41:18;101550.53;;;-5.99;59.00
45888;BME280;31595;51.418;7.572;2022-12-18T01:43:49;101546.00;;;-6.07;58.95
45888;BME280;31595;51.418;7.572;2022-12-18T01:46:18;101556.13;;;-6.01;59.22
45888;BME280;31595;51.418;7.572;2022-12-18T01:48:47;101547.69;;;-6.06;58.72
45888;BME280;31595;51.418;7.572;2022-12-18T01:51:16;101541.38;;;-5.98;58.16
45888;BME280;31595;51.418;7.572;2022-12-18T01:53:48;101535.09;;;-5.99;58.13
45888;BME280;31595;51.418;7.572;2022-12-18T01:56:17;101519.69;;;-5.98;57.81
45888;BME280;31595;51.418;7.572;2022-12-18T01:58:47;101522.31;;;-6.13;59.08
45888;BME280;31595;51.418;7.572;2022-12-18T02:01:15;101522.31;;;-6.13;59.33
45888;BME280;31595;51.418;7.572;2022-12-18T02:03:43;101520.13;;;-6.18;59.23
45888;BME280;31595;51.418;7.572;2022-12-18T02:06:15;101518.75;;;-6.14;59.62
45888;BME280;31595;51.418;7.572;2022-12-18T02:08:52;101522.31;;;-6.13;58.80
45888;BME280;31595;51.418;7.572;2022-12-18T02:11:28;101527.38;;;-6.10;58.90
45888;BME280;31595;51.418;7.572;2022-12-18T02:14:04;101530.94;;;-6.09;59.29
45888;BME280;31595;51.418;7.572;2022-12-18T02:16:43;101538.41;;;-6.12;59.55
45888;BME280;31595;51.418;7.572;2022-12-18T02:19:22;101533.63;;;-6.09;58.93
45888;BME280;31595;51.418;7.572;2022-12-18T02:22:00;101527.66;;;-6.05;59.13
45888;BME280;31595;51.418;7.572;2022-12-18T02:24:37;101525.34;;;-6.08;58.84
45888;BME280;31595;51.418;7.572;2022-12-18T02:27:10;101528.00;;;-6.00;57.89
45888;BME280;31595;51.418;7.572;2022-12-18T02:29:41;101528.38;;;-6.11;58.21
45888;BME280;31595;51.418;7.572;2022-12-18T02:32:16;101521.31;;;-6.20;58.61
45888;BME280;31595;51.418;7.572;2022-12-18T02:34:46;101525.25;;;-6.23;59.40
45888;BME280;31595;51.418;7.572;2022-12-18T02:37:19;101517.44;;;-6.26;59.24
45888;BME280;31595;51.418;7.572;2022-12-18T02:39:48;101510.66;;;-6.22;59.17
45888;BME280;31595;51.418;7.572;2022-12-18T02:42:17;101503.38;;;-6.21;58.57
45888;BME280;31595;51.418;7.572;2022-12-18T02:44:47;101503.69;;;-6.16;58.88
45888;BME280;31595;51.418;7.572;2022-12-18T02:47:17;101508.66;;;-6.28;59.25
45888;BME280;31595;51.418;7.572;2022-12-18T02:49:53;101507.59;;;-6.19;59.55
45888;BME280;31595;51.418;7.572;2022-12-18T02:52:31;101508.59;;;-6.20;59.42
45888;BME280;31595;51.418;7.572;2022-12-18T02:55:12;101515.63;;;-6.25;59.36
45888;BME280;31595;51.418;7.572;2022-12-18T02:58:00;101520.66;;;-6.22;59.40
45888;BME280;31595;51.418;7.572;2022-12-18T03:00:30;101526.91;;;-6.22;58.97
45888;BME280;31595;51.418;7.572;2022-12-18T03:03:05;101526.75;;;-6.20;59.28
45888;BME280;31595;51.418;7.572;2022-12-18T03:05:38;101525.22;;;-6.15;58.46
45888;BME280;31595;51.418;7.572;2022-12-18T03:08:11;101521.44;;;-6.14;58.28
45888;BME280;31595;51.418;7.572;2022-12-18T03:10:43;101514.00;;;-6.12;58.85
45888;BME280;31595;51.418;7.572;2022-12-18T03:13:19;101515.06;;;-6.21;58.35
45888;BME280;31595;51.418;7.572;2022-12-18T03:15:49;101520.63;;;-6.14;58.49
45888;BME280;31595;51.418;7.572;2022-12-18T03:18:22;101519.66;;;-6.21;58.25
45888;BME280;31595;51.418;7.572;2022-12-18T03:20:52;101520.78;;;-6.16;58.83
45888;BME280;31595;51.418;7.572;2022-12-18T03:23:25;101519.63;;;-6.13;58.18
45888;BME280;31595;51.418;7.572;2022-12-18T03:25:57;101507.56;;;-6.10;57.63
45888;BME280;31595;51.418;7.572;2022-12-18T03:28:29;101509.06;;;-6.08;57.68
45888;BME280;31595;51.418;7.572;2022-12-18T03:30:59;101518.06;;;-6.16;58.40
45888;BME280;31595;51.418;7.572;2022-12-18T03:33:31;101522.28;;;-6.36;58.75
45888;BME280;31595;51.418;7.572;2022-12-18T03:36:02;101512.41;;;-6.29;58.89
45888;BME280;31595;51.418;7.572;2022-12-18T03:38:29;101510.69;;;-6.30;58.76
45888;BME280;31595;51.418;7.572;2022-12-18T03:41:00;101503.22;;;-6.28;58.82
45888;BME280;31595;51.418;7.572;2022-12-18T03:43:38;101491.88;;;-6.23;59.41
45888;BME280;31595;51.418;7.572;2022-12-18T03:46:15;101499.38;;;-6.34;58.47
45888;BME280;31595;51.418;7.572;2022-12-18T03:48:46;101495.97;;;-6.27;58.84
45888;BME280;31595;51.418;7.572;2022-12-18T03:51:22;101482.25;;;-6.34;58.88
45888;BME280;31595;51.418;7.572;2022-12-18T03:53:54;101478.16;;;-6.30;58.51
45888;BME280;31595;51.418;7.572;2022-12-18T03:56:25;101489.00;;;-6.30;58.76
45888;BME280;31595;51.418;7.572;2022-12-18T03:58:57;101496.13;;;-6.29;58.44
45888;BME280;31595;51.418;7.572;2022-12-18T04:01:31;101506.59;;;-6.26;58.27
45888;BME280;31595;51.418;7.572;2022-12-18T04:04:00;101510.34;;;-6.27;58.11
45888;BME280;31595;51.418;7.572;2022-12-18T04:06:29;101507.97;;;-6.30;58.76
45888;BME280;31595;51.418;7.572;2022-12-18T04:08:58;101515.81;;;-6.35;58.35
45888;BME280;31595;51.418;7.572;2022-12-18T04:11:25;101510.53;;;-6.28;58.49
45888;BME280;31595;51.418;7.572;2022-12-18T04:13:58;101507.28;;;-6.24;58.27
45888;BME280;31595;51.418;7.572;2022-12-18T04:16:29;101499.69;;;-6.28;57.76
45888;BME280;31595;51.418;7.572;2022-12-18T04:18:56;101502.91;;;-6.25;57.72
45888;BME280;31595;51.418;7.572;2022-12-18T04:21:23;101506.13;;;-6.29;58.33
45888;BME280;31595;51.418;7.572;2022-12-18T04:23:50;101509.03;;;-6.31;58.64
45888;BME280;31595;51.418;7.572;2022-12-18T04:26:21;101506.09;;;-6.21;57.89
45888;BME280;31595;51.418;7.572;2022-12-18T04:28:48;101499.50;;;-6.27;57.86
45888;BME280;31595;51.418;7.572;2022-12-18T04:31:16;101498.06;;;-6.38;57.90
45888;BME280;31595;51.418;7.572;2022-12-18T04:33:44;101498.53;;;-6.34;58.18
45888;BME280;31595;51.418;7.572;2022-12-18T04:36:11;101505.34;;;-6.38;58.21
45888;BME280;31595;51.418;7.572;2022-12-18T04:38:38;101503.59;;;-6.31;58.42
45888;BME280;31595;51.418;7.572;2022-12-18T04:41:06;101501.91;;;-6.32;58.07
45888;BME280;31595;51.418;7.572;2022-12-18T04:43:33;101496.47;;;-6.32;58.14
45888;BME280;31595;51.418;7.572;2022-12-18T04:46:04;101496.53;;;-6.40;58.44
45888;BME280;31595;51.418;7.572;2022-12-18T04:48:32;101496.00;;;-6.36;58.53
45888;BME280;31595;51.418;7.572;2022-12-18T04:51:00;101495.88;;;-6.42;58.01
45888;BME280;31595;51.418;7.572;2022-12-18T04:53:27;101495.00;;;-6.43;58.61
45888;BME280;31595;51.418;7.572;2022-12-18T04:56:04;101491.13;;;-6.40;58.84
45888;BME280;31595;51.418;7.572;2022-12-18T04:58:32;101495.22;;;-6.44;58.12
45888;BME280;31595;51.418;7.572;2022-12-18T05:01:00;101494.13;;;-6.35;57.82
45888;BME280;31595;51.418;7.572;2022-12-18T05:03:27;101492.50;;;-6.44;58.29
45888;BME280;31595;51.418;7.572;2022-12-18T05:05:56;101490.94;;;-6.39;57.88
45888;BME280;31595;51.418;7.572;2022-12-18T05:08:23;101487.09;;;-6.44;58.56
45888;BME280;31595;51.418;7.572;2022-12-18T05:10:58;101483.47;;;-6.37;58.67
45888;BME280;31595;51.418;7.572;2022-12-18T05:13:25;101481.06;;;-6.31;58.58
45888;BME280;31595;51.418;7.572;2022-12-18T05:15:53;101478.16;;;-6.30;57.92
45888;BME280;31595;51.418;7.572;2022-12-18T05:18:21;101476.84;;;-6.34;58.22
45888;BME280;31595;51.418;7.572;2022-12-18T05:20:49;101465.03;;;-6.41;58.20
45888;BME280;31595;51.418;7.572;2022-12-18T05:23:18;101464.03;;;-6.40;57.79
45888;BME280;31595;51.418;7.572;2022-12-18T05:25:50;101464.34;;;-6.43;57.32
45888;BME280;31595;51.418;7.572;2022-12-18T05:28:17;101476.91;;;-6.42;58.63
45888;BME280;31595;51.418;7.572;2022-12-18T05:30:47;101462.06;;;-6.55;58.34
45888;BME280;31595;51.418;7.572;2022-12-18T05:33:15;101448.97;;;-6.51;58.24
45888;BME280;31595;51.418;7.572;2022-12-18T05:35:42;101460.03;;;-6.53;58.12
45888;BME280;31595;51.418;7.572;2022-12-18T05:38:10;101454.91;;;-6.47;57.89
45888;BME280;31595;51.418;7.572;2022-12-18T05:40:41;101447.94;;;-6.42;57.51
45888;BME280;31595;51.418;7.572;2022-12-18T05:43:09;101450.16;;;-6.45;58.23
45888;BME280;31595;51.418;7.572;2022-12-18T05:45:37;101449.19;;;-6.53;57.84
45888;BME280;31595;51.418;7.572;2022-12-18T05:48:04;101451.19;;;-6.46;57.49
45888;BME280;31595;51.418;7.572;2022-12-18T05:50:34;101446.06;;;-6.41;57.75
45888;BME280;31595;51.418;7.572;2022-12-18T05:53:01;101449.47;;;-6.47;57.36
45888;BME280;31595;51.418;7.572;2022-12-18T05:55:29;101456.59;;;-6.46;57.24
45888;BME280;31595;51.418;7.572;2022-12-18T05:57:57;101461.19;;;-6.55;56.97
45888;BME280;31595;51.418;7.572;2022-12-18T06:00:25;101465.78;;;-6.56;57.80
45888;BME280;31595;51.418;7.572;2022-12-18T06:02:52;101477.00;;;-6.59;57.66
45888;BME280;31595;51.418;7.572;2022-12-18T06:05:19;101474.94;;;-6.57;57.39
45888;BME280;31595;51.418;7.572;2022-12-18T06:07:46;101492.03;;;-6.56;57.13
45888;BME280;31595;51.418;7.572;2022-12-18T06:10:13;101491.25;;;-6.73;57.91
45888;BME280;31595;51.418;7.572;2022-12-18T06:12:41;101490.53;;;-6.59;57.73
45888;BME280;31595;51.418;7.572;2022-12-18T06:15:10;101496.63;;;-6.57;58.59
45888;BME280;31595;51.418;7.572;2022-12-18T06:17:37;101506.97;;;-6.60;57.91
45888;BME280;31595;51.418;7.572;2022-12-18T06:20:05;101494.59;;;-6.55;58.15
45888;BME280;31595;51.418;7.572;2022-12-18T06:22:33;101497.59;;;-6.49;57.43
45888;BME280;31595;51.418;7.572;2022-12-18T06:25:00;101506.56;;;-6.49;57.75
45888;BME280;31595;51.418;7.572;2022-12-18T06:27:28;101512.88;;;-6.57;57.89
45888;BME280;31595;51.418;7.572;2022-12-18T06:29:55;101511.53;;;-6.61;58.15
45888;BME280;31595;51.418;7.572;2022-12-18T06:32:24;101520.97;;;-6.48;58.13
45888;BME280;31595;51.418;7.572;2022-12-18T06:34:51;101517.06;;;-6.46;58.31
45888;BME280;31595;51.418;7.572;2022-12-18T06:37:19;101519.44;;;-6.51;57.86
45888;BME280;31595;51.418;7.572;2022-12-18T06:39:46;101518.41;;;-6.42;58.32
45888;BME280;31595;51.418;7.572;2022-12-18T06:42:13;101523.28;;;-6.37;58.95
45888;BME280;31595;51.418;7.572;2022-12-18T06:44:40;101517.88;;;-6.37;59.04
45888;BME280;31595;51.418;7.572;2022-12-18T06:47:08;101516.13;;;-6.30;59.59
45888;BME280;31595;51.418;7.572;2022-12-18T06:49:36;101506.41;;;-6.16;59.12
45888;BME280;31595;51.418;7.572;2022-12-18T06:52:04;101502.75;;;-6.00;61.21
45888;BME280;31595;51.418;7.572;2022-12-18T06:54:31;101502.09;;;-5.64;63.08
45888;BME280;31595;51.418;7.572;2022-12-18T06:56:58;101506.81;;;-5.20;64.40
45888;BME280;31595;51.418;7.572;2022-12-18T06:59:25;101502.78;;;-4.80;64.24
45888;BME280;31595;51.418;7.572;2022-12-18T07:01:54;101498.06;;;-4.41;64.49
45888;BME280;31595;51.418;7.572;2022-12-18T07:04:27;101492.06;;;-4.00;64.17
45888;BME280;31595;51.418;7.572;2022-12-18T07:06:56;101482.22;;;-3.58;63.57
45888;BME280;31595;51.418;7.572;2022-12-18T07:09:24;101480.38;;;-3.30;63.38
45888;BME280;31595;51.418;7.572;2022-12-18T07:11:51;101467.91;;;-3.11;62.33
45888;BME280;31595;51.418;7.572;2022-12-18T07:14:19;101459.50;;;-2.81;62.18
45888;BME280;31595;51.418;7.572;2022-12-18T07:16:46;101461.69;;;-2.56;61.35
45888;BME280;31595;51.418;7.572;2022-12-18T07:19:13;101466.81;;;-2.33;60.99
45888;BME280;31595;51.418;7.572;2022-12-18T07:21:40;101472.34;;;-2.13;59.09
45888;BME280;31595;51.418;7.572;2022-12-18T07:24:09;101468.41;;;-1.97;58.52
45888;BME280;31595;51.418;7.572;2022-12-18T07:26:36;101467.38;;;-1.83;58.16
45888;BME280;31595;51.418;7.572;2022-12-18T07:29:04;101463.41;;;-1.74;57.08
45888;BME280;31595;51.418;7.572;2022-12-18T07:31:31;101456.06;;;-1.67;57.46
45888;BME280;31595;51.418;7.572;2022-12-18T07:33:58;101461.09;;;-1.50;56.37
45888;BME280;31595;51.418;7.572;2022-12-18T07:36:26;101448.50;;;-1.38;55.56
45888;BME280;31595;51.418;7.572;2022-12-18T07:38:56;101447.22;;;-1.29;55.32
45888;BME280;31595;51.418;7.572;2022-12-18T07:41:25;101435.41;;;-1.16;55.34
45888;BME280;31595;51.418;7.572;2022-12-18T07:43:52;101441.09;;;-1.11;54.88
45888;BME280;31595;51.418;7.572;2022-12-18T07:46:20;101434.56;;;-1.03;55.50
45888;BME280;31595;51.418;7.572;2022-12-18T07:48:47;101436.25;;;-1.02;55.20
45888;BME280;31595;51.418;7.572;2022-12-18T07:51:17;101440.19;;;-0.85;54.61
45888;BME280;31595;51.418;7.572;2022-12-18T07:53:48;101440.78;;;-0.76;54.00
45888;BME280;31595;51.418;7.572;2022-12-18T07:56:15;101439.28;;;-0.58;52.97
45888;BME280;31595;51.418;7.572;2022-12-18T07:58:44;101436.94;;;-0.55;53.36
45888;BME280;31595;51.418;7.572;2022-12-18T08:01:11;101436.66;;;-0.40;53.12
45888;BME280;31595;51.418;7.572;2022-12-18T08:03:40;101442.28;;;-0.28;53.15
45888;BME280;31595;51.418;7.572;2022-12-18T08:06:09;101435.72;;;-0.21;52.92
45888;BME280;31595;51.418;7.572;2022-12-18T08:08:36;101446.44;;;-0.12;52.28
45888;BME280;31595;51.418;7.572;2022-12-18T08:11:04;101433.22;;;0.10;52.06
45888;BME280;31595;51.418;7.572;2022-12-18T08:13:31;101428.03;;;0.27;51.29
45888;BME280;31595;51.418;7.572;2022-12-18T08:16:06;101436.53;;;0.44;50.59
45888;BME280;31595;51.418;7.572;2022-12-18T08:18:35;101428.94;;;0.71;50.63
45888;BME280;31595;51.418;7.572;2022-12-18T08:21:09;101415.19;;;0.96;50.12
45888;BME280;31595;51.418;7.572;2022-12-18T08:23:37;101414.63;;;1.42;49.21
45888;BME280;31595;51.418;7.572;2022-12-18T08:26:06;101408.28;;;2.33;46.66
45888;BME280;31595;51.418;7.572;2022-12-18T08:28:34;101395.66;;;4.00;43.84
45888;BME280;31595;51.418;7.572;2022-12-18T08:31:03;101379.59;;;4.99;41.95
45888;BME280;31595;51.418;7.572;2022-12-18T08:33:32;101376.69;;;5.99;39.83
45888;BME280;31595;51.418;7.572;2022-12-18T08:35:59;101379.88;;;6.87;38.08
45888;BME280;31595;51.418;7.572;2022-12-18T08:38:27;101372.81;;;7.12;36.93
45888;BME280;31595;51.418;7.572;2022-12-18T08:40:58;101367.50;;;6.25;37.80
45888;BME280;31595;51.418;7.572;2022-12-18T08:43:28;101357.44;;;5.87;38.53
45888;BME280;31595;51.418;7.572;2022-12-18T08:46:14;101353.00;;;6.13;38.56
45888;BME280;31595;51.418;7.572;2022-12-18T08:48:46;101346.94;;;6.48;38.15
45888;BME280;31595;51.418;7.572;2022-12-18T08:51:15;101344.50;;;7.93;35.06
45888;BME280;31595;51.418;7.572;2022-12-18T08:53:43;101330.34;;;9.97;30.75
45888;BME280;31595;51.418;7.572;2022-12-18T08:56:11;101336.56;;;11.11;28.46
45888;BME280;31595;51.418;7.572;2022-12-18T08:58:40;101332.19;;;11.91;27.25
45888;BME280;31595;51.418;7.572;2022-12-18T09:01:09;101322.72;;;11.87;27.99
45888;BME280;31595;51.418;7.572;2022-12-18T09:03:38;101310.19;;;12.22;27.50
45888;BME280;31595;51.418;7.572;2022-12-18T09:06:06;101336.34;;;13.61;25.17
45888;BME280;31595;51.418;7.572;2022-12-18T09:08:34;101332.03;;;14.36;25.14
45888;BME280;31595;51.418;7.572;2022-12-18T09:11:02;101340.38;;;15.70;22.80
45888;BME280;31595;51.418;7.572;2022-12-18T09:13:29;101344.06;;;16.14;22.91
45888;BME280;31595;51.418;7.572;2022-12-18T09:15:57;101340.94;;;16.16;23.05
45888;BME280;31595;51.418;7.572;2022-12-18T09:18:24;101323.69;;;16.43;21.78
45888;BME280;31595;51.418;7.572;2022-12-18T09:20:54;101309.25;;;16.62;21.32
45888;BME280;31595;51.418;7.572;2022-12-18T09:23:21;101324.25;;;16.19;21.60
45888;BME280;31595;51.418;7.572;2022-12-18T09:25:48;101329.72;;;15.32;22.34
45888;BME280;31595;51.418;7.572;2022-12-18T09:28:17;101319.75;;;14.77;21.86
45888;BME280;31595;51.418;7.572;2022-12-18T09:30:47;101305.31;;;13.94;22.20
45888;BME280;31595;51.418;7.572;2022-12-18T09:33:14;101305.06;;;13.31;23.22
45888;BME280;31595;51.418;7.572;2022-12-18T09:35:43;101309.50;;;12.77;24.59
45888;BME280;31595;51.418;7.572;2022-12-18T09:38:15;101314.25;;;12.11;24.66
45888;BME280;31595;51.418;7.572;2022-12-18T09:40:44;101326.25;;;11.73;25.24
45888;BME280;31595;51.418;7.572;2022-12-18T09:43:16;101312.19;;;12.35;25.03
45888;BME280;31595;51.418;7.572;2022-12-18T09:45:51;101311.88;;;12.37;24.12
45888;BME280;31595;51.418;7.572;2022-12-18T09:48:25;101303.19;;;13.40;23.20
45888;BME280;31595;51.418;7.572;2022-12-18T09:50:58;101311.22;;;13.70;23.93
45888;BME280;31595;51.418;7.572;2022-12-18T09:53:31;101292.63;;;12.35;25.42
45888;BME280;31595;51.418;7.572;2022-12-18T09:56:00;101301.00;;;12.03;24.50
45888;BME280;31595;51.418;7.572;2022-12-18T09:58:31;101300.69;;;11.47;25.37
45888;BME280;31595;51.418;7.572;2022-12-18T10:01:01;101300.53;;;10.37;27.17
45888;BME280;31595;51.418;7.572;2022-12-18T10:03:29;101309.69;;;10.72;26.26
45888;BME280;31595;51.418;7.572;2022-12-18T10:06:02;101305.91;;;10.57;27.41
45888;BME280;31595;51.418;7.572;2022-12-18T10:08:40;101315.63;;;10.31;26.21
45888;BME280;31595;51.418;7.572;2022-12-18T10:11:28;101318.72;;;10.24;26.86
45888;BME280;31595;51.418;7.572;2022-12-18T10:14:04;101321.41;;;9.61;27.49
45888;BME280;31595;51.418;7.572;2022-12-18T10:16:38;101312.63;;;8.22;28.10
45888;BME280;31595;51.418;7.572;2022-12-18T10:19:18;101313.19;;;8.34;30.00
45888;BME280;31595;51.418;7.572;2022-12-18T10:21:52;101299.25;;;8.75;28.63
45888;BME280;31595;51.418;7.572;2022-12-18T10:24:28;101290.59;;;9.47;28.22
45888;BME280;31595;51.418;7.572;2022-12-18T10:27:00;101288.19;;;9.80;28.06
45888;BME280;31595;51.418;7.572;2022-12-18T10:29:38;101274.44;;;10.28;26.06
45888;BME280;31595;51.418;7.572;2022-12-18T10:32:14;101269.13;;;9.97;26.68
45888;BME280;31595;51.418;7.572;2022-12-18T10:34:45;101264.41;;;10.32;25.99
45888;BME280;31595;51.418;7.572;2022-12-18T10:37:16;101270.22;;;10.35;26.29
45888;BME280;31595;51.418;7.572;2022-12-18T10:39:46;101270.69;;;10.43;27.98
45888;BME280;31595;51.418;7.572;2022-12-18T10:42:31;101257.75;;;9.93;26.81
45888;BME280;31595;51.418;7.572;2022-12-18T10:45:05;101244.63;;;10.28;26.69
45888;BME280;31595;51.418;7.572;2022-12-18T10:47:33;101246.44;;;10.14;27.32
45888;BME280;31595;51.418;7.572;2022-12-18T10:50:01;101228.53;;;9.62;27.10
45888;BME280;31595;51.418;7.572;2022-12-18T10:52:28;101240.63;;;10.10;26.67
45888;BME280;31595;51.418;7.572;2022-12-18T10:54:59;101230.16;;;10.55;26.77
45888;BME280;31595;51.418;7.572;2022-12-18T10:57:34;101224.56;;;10.61;25.51
45888;BME280;31595;51.418;7.572;2022-12-18T11:00:21;101222.16;;;10.97;24.73
45888;BME280;31595;51.418;7.572;2022-12-18T11:02:50;101228.94;;;11.10;25.49
45888;BME280;31595;51.418;7.572;2022-12-18T11:05:26;101218.19;;;10.79;24.98
45888;BME280;31595;51.418;7.572;2022-12-18T11:07:54;101208.69;;;11.42;25.05
45888;BME280;31595;51.418;7.572;2022-12-18T11:10:28;101205.38;;;11.21;24.78
45888;BME280;31595;51.418;7.572;2022-12-18T11:13:11;101214.41;;;11.70;23.99
45888;BME280;31595;51.418;7.572;2022-12-18T11:15:40;101209.38;;;11.53;24.54
45888;BME280;31595;51.418;7.572;2022-12-18T11:18:16;101199.59;;;10.50;25.54
45888;BME280;31595;51.418;7.572;2022-12-18T11:20:51;101198.56;;;10.41;26.13
45888;BME280;31595;51.418;7.572;2022-12-18T11:23:21;101204.66;;;9.85;25.83
45888;BME280;31595;51.418;7.572;2022-12-18T11:25:58;101204.94;;;9.54;25.54
45888;BME280;31595;51.418;7.572;2022-12-18T11:28:34;101194.47;;;9.35;26.58
45888;BME280;31595;51.418;7.572;2022-12-18T11:31:16;101192.91;;;9.19;26.56
45888;BME280;31595;51.418;7.572;2022-12-18T11:33:46;101190.34;;;8.83;26.67
45888;BME280;31595;51.418;7.572;2022-12-18T11:36:16;101183.13;;;8.77;26.54
45888;BME280;31595;51.418;7.572;2022-12-18T11:38:45;101180.97;;;8.64;28.77
45888;BME280;31595;51.418;7.572;2022-12-18T11:41:16;101194.59;;;8.65;27.98
45888;BME280;31595;51.418;7.572;2022-12-18T11:43:50;101192.72;;;8.50;26.80
45888;BME280;31595;51.418;7.572;2022-12-18T11:46:26;101183.31;;;8.10;28.26
45888;BME280;31595;51.418;7.572;2022-12-18T11:49:00;101184.75;;;7.87;28.81
45888;BME280;31595;51.418;7.572;2022-12-18T11:51:43;101167.56;;;7.80;28.85
45888;BME280;31595;51.418;7.572;2022-12-18T11:54:15;101168.94;;;7.42;29.09
45888;BME280;31595;51.418;7.572;2022-12-18T11:56:47;101164.50;;;7.20;29.11
45888;BME280;31595;51.418;7.572;2022-12-18T11:59:20;101151.19;;;7.17;29.99
45888;BME280;31595;51.418;7.572;2022-12-18T12:01:55;101143.16;;;7.21;29.87
45888;BME280;31595;51.418;7.572;2022-12-18T12:05:01;101135.41;;;7.13;30.04
45888;BME280;31595;51.418;7.572;2022-12-18T12:07:38;101124.88;;;7.15;29.91
45888;BME280;31595;51.418;7.572;2022-12-18T12:10:26;101122.66;;;7.17;30.24
45888;BME280;31595;51.418;7.572;2022-12-18T12:13:12;101123.47;;;7.22;29.60
45888;BME280;31595;51.418;7.572;2022-12-18T12:15:47;101134.28;;;7.24;30.38
45888;BME280;31595;51.418;7.572;2022-12-18T12:18:28;101124.88;;;7.15;29.15
45888;BME280;31595;51.418;7.572;2022-12-18T12:21:05;101128.16;;;7.01;29.97
45888;BME280;31595;51.418;7.572;2022-12-18T12:23:41;101141.19;;;6.96;28.99
45888;BME280;31595;51.418;7.572;2022-12-18T12:26:18;101130.59;;;6.77;30.11
45888;BME280;31595;51.418;7.572;2022-12-18T12:29:13;101131.97;;;6.69;30.24
45888;BME280;31595;51.418;7.572;2022-12-18T12:32:01;101116.44;;;6.63;29.93
45888;BME280;31595;51.418;7.572;2022-12-18T12:34:38;101117.78;;;6.50;30.62
45888;BME280;31595;51.418;7.572;2022-12-18T12:37:17;101111.44;;;6.50;30.73
45888;BME280;31595;51.418;7.572;2022-12-18T12:39:47;101113.88;;;6.46;31.24
45888;BME280;31595;51.418;7.572;2022-12-18T12:42:20;101106.97;;;6.44;30.59
45888;BME280;31595;51.418;7.572;2022-12-18T12:45:16;101092.88;;;6.50;30.89
45888;BME280;31595;51.418;7.572;2022-12-18T12:47:49;101086.25;;;6.52;31.12
45888;BME280;31595;51.418;7.572;2022-12-18T12:50:19;101088.44;;;6.44;31.58
45888;BME280;31595;51.418;7.572;2022-12-18T12:52:50;101093.16;;;6.49;31.46
45888;BME280;31595;51.418;7.572;2022-12-18T12:55:21;101085.16;;;6.63;31.17
45888;BME280;31595;51.418;7.572;2022-12-18T12:57:54;101084.06;;;6.64;31.35
45888;BME280;31595;51.418;7.572;2022-12-18T13:00:29;101076.03;;;6.67;32.00
45888;BME280;31595;51.418;7.572;2022-12-18T13:03:03;101086.59;;;6.81;31.45
45888;BME280;31595;51.418;7.572;2022-12-18T13:05:40;101074.13;;;6.88;30.87
45888;BME280;31595;51.418;7.572;2022-12-18T13:08:10;101078.84;;;6.88;31.20
45888;BME280;31595;51.418;7.572;2022-12-18T13:10:39;101080.78;;;6.82;31.13
45888;BME280;31595;51.418;7.572;2022-12-18T13:13:09;101079.41;;;6.90;29.86